sensor_id;sensor_type;location;lat;lon;timestamp;P1;durP1;ratioP1;P2;durP2;ratioP2
77571;SDS011;67214;47.454;18.966;2023-06-22T00:02:22;11.83;;;5.70;;
77571;SDS011;67214;47.454;18.966;2023-06-22T00:04:49;11.12;;;5.35;;
77571;SDS011;67214;47.454;18.966;2023-06-22T00:07:17;11.73;;;5.17;;
77571;SDS011;67214;47.454;18.966;2023-06-22T00:09:45;10.20;;;5.72;;
77571;SDS011;67214;47.454;18.966;2023-06-22T00:12:12;14.10;;;5.92;;
77571;SDS011;67214;47.454;18.966;2023-06-22T00:14:40;10.28;;;5.50;;
77571;SDS011;67214;47.454;18.966;2023-06-22T00:17:07;8.63;;;5.58;;
77571;SDS011;67214;47.454;18.966;2023-06-22T00:19:34;11.57;;;6.90;;
77571;SDS011;67214;47.454;18.966;2023-06-22T00:22:04;11.15;;;7.12;;
77571;SDS011;67214;47.454;18.966;2023-06-22T00:24:31;15.65;;;7.37;;
77571;SDS011;67214;47.454;18.966;2023-06-22T00:26:58;10.05;;;6.72;;
77571;SDS011;67214;47.454;18.966;2023-06-22T00:29:26;10.60;;;7.25;;
77571;SDS011;67214;47.454;18.966;2023-06-22T00:31:53;10.15;;;6.75;;
77571;SDS011;67214;47.454;18.966;2023-06-22T00:34:21;10.70;;;7.30;;
77571;SDS011;67214;47.454;18.966;2023-06-22T00:36:48;14.25;;;7.42;;
77571;SDS011;67214;47.454;18.966;2023-06-22T00:39:17;15.03;;;6.95;;
77571;SDS011;67214;47.454;18.966;2023-06-22T00:41:44;15.43;;;6.72;;
77571;SDS011;67214;47.454;18.966;2023-06-22T00:44:12;12.43;;;7.33;;
77571;SDS011;67214;47.454;18.966;2023-06-22T00:46:39;9.93;;;6.62;;
77571;SDS011;67214;47.454;18.966;2023-06-22T00:49:07;11.57;;;7.10;;
77571;SDS011;67214;47.454;18.966;2023-06-22T00:51:34;13.38;;;6.92;;
77571;SDS011;67214;47.454;18.966;2023-06-22T00:54:04;14.43;;;7.75;;
77571;SDS011;67214;47.454;18.966;2023-06-22T00:56:32;10.50;;;6.92;;
77571;SDS011;67214;47.454;18.966;2023-06-22T00:59:01;13.20;;;7.80;;
77571;SDS011;67214;47.454;18.966;2023-06-22T01:01:29;13.05;;;7.12;;
77571;SDS011;67214;47.454;18.966;2023-06-22T01:03:56;13.03;;;7.78;;
77571;SDS011;67214;47.454;18.966;2023-06-22T01:06:28;11.00;;;8.35;;
77571;SDS011;67214;47.454;18.966;2023-06-22T01:09:00;14.58;;;7.60;;
77571;SDS011;67214;47.454;18.966;2023-06-22T01:11:41;16.55;;;9.33;;
77571;SDS011;67214;47.454;18.966;2023-06-22T01:14:21;12.93;;;7.83;;
77571;SDS011;67214;47.454;18.966;2023-06-22T01:16:52;11.83;;;7.97;;
77571;SDS011;67214;47.454;18.966;2023-06-22T01:21:53;11.15;;;7.20;;
77571;SDS011;67214;47.454;18.966;2023-06-22T01:24:44;13.72;;;7.72;;
77571;SDS011;67214;47.454;18.966;2023-06-22T01:29:56;13.60;;;8.38;;
77571;SDS011;67214;47.454;18.966;2023-06-22T01:32:33;13.15;;;7.97;;
77571;SDS011;67214;47.454;18.966;2023-06-22T01:34:58;13.70;;;7.55;;
77571;SDS011;67214;47.454;18.966;2023-06-22T01:37:28;15.53;;;8.10;;
77571;SDS011;67214;47.454;18.966;2023-06-22T01:39:58;11.15;;;8.33;;
77571;SDS011;67214;47.454;18.966;2023-06-22T01:42:26;12.88;;;7.92;;
77571;SDS011;67214;47.454;18.966;2023-06-22T01:44:53;16.67;;;8.53;;
77571;SDS011;67214;47.454;18.966;2023-06-22T01:47:22;16.48;;;8.43;;
77571;SDS011;67214;47.454;18.966;2023-06-22T01:49:51;13.05;;;8.03;;
77571;SDS011;67214;47.454;18.966;2023-06-22T01:52:19;15.78;;;8.20;;
77571;SDS011;67214;47.454;18.966;2023-06-22T01:54:47;12.23;;;7.72;;
77571;SDS011;67214;47.454;18.966;2023-06-22T01:57:14;14.58;;;7.05;;
77571;SDS011;67214;47.454;18.966;2023-06-22T01:59:48;16.25;;;7.58;;
77571;SDS011;67214;47.454;18.966;2023-06-22T02:02:21;11.80;;;7.33;;
77571;SDS011;67214;47.454;18.966;2023-06-22T02:04:54;14.85;;;7.35;;
77571;SDS011;67214;47.454;18.966;2023-06-22T02:07:28;13.08;;;7.10;;
77571;SDS011;67214;47.454;18.966;2023-06-22T02:10:02;11.75;;;6.60;;
77571;SDS011;67214;47.454;18.966;2023-06-22T02:12:31;14.58;;;6.78;;
77571;SDS011;67214;47.454;18.966;2023-06-22T02:15:00;10.85;;;6.60;;
77571;SDS011;67214;47.454;18.966;2023-06-22T02:17:28;12.70;;;7.30;;
77571;SDS011;67214;47.454;18.966;2023-06-22T02:19:58;14.60;;;7.65;;
77571;SDS011;67214;47.454;18.966;2023-06-22T02:22:27;17.70;;;8.20;;
77571;SDS011;67214;47.454;18.966;2023-06-22T02:24:55;11.88;;;8.10;;
77571;SDS011;67214;47.454;18.966;2023-06-22T02:27:24;16.55;;;7.83;;
77571;SDS011;67214;47.454;18.966;2023-06-22T02:29:51;14.80;;;7.87;;
77571;SDS011;67214;47.454;18.966;2023-06-22T02:32:18;14.23;;;8.83;;
77571;SDS011;67214;47.454;18.966;2023-06-22T02:34:46;14.15;;;9.38;;
77571;SDS011;67214;47.454;18.966;2023-06-22T02:37:13;13.78;;;7.92;;
77571;SDS011;67214;47.454;18.966;2023-06-22T02:39:41;12.55;;;8.10;;
77571;SDS011;67214;47.454;18.966;2023-06-22T02:42:09;13.43;;;7.78;;
77571;SDS011;67214;47.454;18.966;2023-06-22T02:44:36;9.78;;;7.50;;
77571;SDS011;67214;47.454;18.966;2023-06-22T02:47:04;12.10;;;7.87;;
77571;SDS011;67214;47.454;18.966;2023-06-22T02:49:33;14.50;;;7.80;;
77571;SDS011;67214;47.454;18.966;2023-06-22T02:52:00;15.20;;;8.30;;
77571;SDS011;67214;47.454;18.966;2023-06-22T02:54:28;12.98;;;8.08;;
77571;SDS011;67214;47.454;18.966;2023-06-22T02:56:55;15.63;;;7.47;;
77571;SDS011;67214;47.454;18.966;2023-06-22T02:59:23;13.95;;;7.67;;
77571;SDS011;67214;47.454;18.966;2023-06-22T03:01:50;14.03;;;7.80;;
77571;SDS011;67214;47.454;18.966;2023-06-22T03:04:18;15.48;;;7.90;;
77571;SDS011;67214;47.454;18.966;2023-06-22T03:06:46;14.95;;;7.37;;
77571;SDS011;67214;47.454;18.966;2023-06-22T03:09:17;15.85;;;7.85;;
77571;SDS011;67214;47.454;18.966;2023-06-22T03:11:44;14.03;;;7.42;;
77571;SDS011;67214;47.454;18.966;2023-06-22T03:14:12;10.63;;;6.42;;
77571;SDS011;67214;47.454;18.966;2023-06-22T03:16:39;11.75;;;6.25;;
77571;SDS011;67214;47.454;18.966;2023-06-22T03:19:07;10.48;;;6.33;;
77571;SDS011;67214;47.454;18.966;2023-06-22T03:21:34;10.68;;;6.17;;
77571;SDS011;67214;47.454;18.966;2023-06-22T03:24:04;12.58;;;6.80;;
77571;SDS011;67214;47.454;18.966;2023-06-22T03:26:32;9.65;;;6.00;;
77571;SDS011;67214;47.454;18.966;2023-06-22T03:29:00;10.95;;;6.75;;
77571;SDS011;67214;47.454;18.966;2023-06-22T03:31:28;15.05;;;7.03;;
77571;SDS011;67214;47.454;18.966;2023-06-22T03:33:56;11.73;;;7.45;;
77571;SDS011;67214;47.454;18.966;2023-06-22T03:36:23;12.95;;;7.28;;
77571;SDS011;67214;47.454;18.966;2023-06-22T03:38:51;14.23;;;6.78;;
77571;SDS011;67214;47.454;18.966;2023-06-22T03:41:18;12.78;;;6.75;;
77571;SDS011;67214;47.454;18.966;2023-06-22T03:43:46;11.22;;;7.58;;
77571;SDS011;67214;47.454;18.966;2023-06-22T03:46:13;19.62;;;8.10;;
77571;SDS011;67214;47.454;18.966;2023-06-22T03:48:41;15.50;;;7.75;;
77571;SDS011;67214;47.454;18.966;2023-06-22T03:51:08;14.98;;;8.13;;
77571;SDS011;67214;47.454;18.966;2023-06-22T03:53:36;13.65;;;8.08;;
77571;SDS011;67214;47.454;18.966;2023-06-22T03:56:03;15.10;;;8.10;;
77571;SDS011;67214;47.454;18.966;2023-06-22T03:58:31;12.28;;;7.95;;
77571;SDS011;67214;47.454;18.966;2023-06-22T04:00:59;16.20;;;8.28;;
77571;SDS011;67214;47.454;18.966;2023-06-22T04:03:26;17.75;;;8.40;;
77571;SDS011;67214;47.454;18.966;2023-06-22T04:05:54;17.25;;;7.95;;
77571;SDS011;67214;47.454;18.966;2023-06-22T04:08:21;13.65;;;8.18;;
77571;SDS011;67214;47.454;18.966;2023-06-22T04:10:48;12.40;;;7.50;;
77571;SDS011;67214;47.454;18.966;2023-06-22T04:13:16;14.20;;;7.67;;
77571;SDS011;67214;47.454;18.966;2023-06-22T04:15:45;16.15;;;8.03;;
77571;SDS011;67214;47.454;18.966;2023-06-22T04:18:12;14.10;;;7.80;;
77571;SDS011;67214;47.454;18.966;2023-06-22T04:20:40;14.58;;;8.95;;
77571;SDS011;67214;47.454;18.966;2023-06-22T04:23:07;12.75;;;7.35;;
77571;SDS011;67214;47.454;18.966;2023-06-22T04:25:35;12.90;;;7.17;;
77571;SDS011;67214;47.454;18.966;2023-06-22T04:28:02;15.88;;;7.97;;
77571;SDS011;67214;47.454;18.966;2023-06-22T04:30:30;15.40;;;7.65;;
77571;SDS011;67214;47.454;18.966;2023-06-22T04:32:59;16.85;;;7.58;;
77571;SDS011;67214;47.454;18.966;2023-06-22T04:35:26;16.05;;;7.87;;
77571;SDS011;67214;47.454;18.966;2023-06-22T04:37:55;14.43;;;8.00;;
77571;SDS011;67214;47.454;18.966;2023-06-22T04:40:24;13.43;;;8.90;;
77571;SDS011;67214;47.454;18.966;2023-06-22T04:42:52;13.43;;;7.83;;
77571;SDS011;67214;47.454;18.966;2023-06-22T04:45:20;11.57;;;7.83;;
77571;SDS011;67214;47.454;18.966;2023-06-22T04:47:47;15.40;;;8.60;;
77571;SDS011;67214;47.454;18.966;2023-06-22T04:50:15;14.38;;;8.43;;
77571;SDS011;67214;47.454;18.966;2023-06-22T04:52:45;14.03;;;8.08;;
77571;SDS011;67214;47.454;18.966;2023-06-22T04:55:12;16.57;;;8.55;;
77571;SDS011;67214;47.454;18.966;2023-06-22T04:57:42;16.55;;;8.48;;
77571;SDS011;67214;47.454;18.966;2023-06-22T05:00:11;16.32;;;8.48;;
77571;SDS011;67214;47.454;18.966;2023-06-22T05:02:41;15.88;;;8.65;;
77571;SDS011;67214;47.454;18.966;2023-06-22T05:05:10;15.32;;;7.97;;
77571;SDS011;67214;47.454;18.966;2023-06-22T05:07:44;15.15;;;8.13;;
77571;SDS011;67214;47.454;18.966;2023-06-22T05:10:16;11.15;;;7.90;;
77571;SDS011;67214;47.454;18.966;2023-06-22T05:12:43;16.40;;;7.78;;
77571;SDS011;67214;47.454;18.966;2023-06-22T05:15:12;16.12;;;8.43;;
77571;SDS011;67214;47.454;18.966;2023-06-22T05:17:41;17.00;;;8.63;;
77571;SDS011;67214;47.454;18.966;2023-06-22T05:20:10;12.63;;;7.35;;
77571;SDS011;67214;47.454;18.966;2023-06-22T05:22:39;10.72;;;7.58;;
77571;SDS011;67214;47.454;18.966;2023-06-22T05:25:08;13.18;;;7.62;;
77571;SDS011;67214;47.454;18.966;2023-06-22T05:27:37;17.50;;;8.48;;
77571;SDS011;67214;47.454;18.966;2023-06-22T05:30:08;16.95;;;7.75;;
77571;SDS011;67214;47.454;18.966;2023-06-22T05:32:37;13.55;;;7.40;;
77571;SDS011;67214;47.454;18.966;2023-06-22T05:35:04;15.50;;;7.35;;
77571;SDS011;67214;47.454;18.966;2023-06-22T05:37:32;14.40;;;7.08;;
77571;SDS011;67214;47.454;18.966;2023-06-22T05:40:00;15.95;;;7.60;;
77571;SDS011;67214;47.454;18.966;2023-06-22T05:42:28;22.62;;;9.90;;
77571;SDS011;67214;47.454;18.966;2023-06-22T05:44:55;17.75;;;9.48;;
77571;SDS011;67214;47.454;18.966;2023-06-22T05:47:24;15.85;;;8.23;;
77571;SDS011;67214;47.454;18.966;2023-06-22T05:49:52;14.53;;;6.95;;
77571;SDS011;67214;47.454;18.966;2023-06-22T05:52:19;16.57;;;7.85;;
77571;SDS011;67214;47.454;18.966;2023-06-22T05:54:47;12.18;;;7.40;;
77571;SDS011;67214;47.454;18.966;2023-06-22T05:57:14;16.40;;;8.38;;
77571;SDS011;67214;47.454;18.966;2023-06-22T05:59:41;10.88;;;6.97;;
77571;SDS011;67214;47.454;18.966;2023-06-22T06:02:09;12.90;;;7.22;;
77571;SDS011;67214;47.454;18.966;2023-06-22T06:04:36;17.10;;;6.95;;
77571;SDS011;67214;47.454;18.966;2023-06-22T06:07:04;11.57;;;6.67;;
77571;SDS011;67214;47.454;18.966;2023-06-22T06:09:31;11.48;;;6.12;;
77571;SDS011;67214;47.454;18.966;2023-06-22T06:11:58;11.93;;;6.15;;
77571;SDS011;67214;47.454;18.966;2023-06-22T06:14:28;12.13;;;6.28;;
77571;SDS011;67214;47.454;18.966;2023-06-22T06:16:55;12.70;;;6.75;;
77571;SDS011;67214;47.454;18.966;2023-06-22T06:19:23;10.55;;;6.03;;
77571;SDS011;67214;47.454;18.966;2023-06-22T06:21:50;12.13;;;5.97;;
77571;SDS011;67214;47.454;18.966;2023-06-22T06:24:18;15.83;;;5.80;;
77571;SDS011;67214;47.454;18.966;2023-06-22T06:26:45;11.03;;;5.30;;
77571;SDS011;67214;47.454;18.966;2023-06-22T06:29:13;13.60;;;6.28;;
77571;SDS011;67214;47.454;18.966;2023-06-22T06:31:41;12.45;;;5.00;;
77571;SDS011;67214;47.454;18.966;2023-06-22T06:34:09;12.53;;;5.92;;
77571;SDS011;67214;47.454;18.966;2023-06-22T06:36:36;8.65;;;5.17;;
77571;SDS011;67214;47.454;18.966;2023-06-22T06:39:04;10.63;;;5.20;;
77571;SDS011;67214;47.454;18.966;2023-06-22T06:41:31;10.35;;;5.55;;
77571;SDS011;67214;47.454;18.966;2023-06-22T06:43:59;11.75;;;5.78;;
77571;SDS011;67214;47.454;18.966;2023-06-22T06:46:26;12.00;;;5.22;;
77571;SDS011;67214;47.454;18.966;2023-06-22T06:48:54;10.75;;;5.10;;
77571;SDS011;67214;47.454;18.966;2023-06-22T06:51:21;11.68;;;5.20;;
77571;SDS011;67214;47.454;18.966;2023-06-22T06:53:49;10.88;;;5.40;;
77571;SDS011;67214;47.454;18.966;2023-06-22T06:56:16;8.43;;;4.90;;
77571;SDS011;67214;47.454;18.966;2023-06-22T06:58:45;16.62;;;5.72;;
77571;SDS011;67214;47.454;18.966;2023-06-22T07:01:12;21.55;;;7.40;;
77571;SDS011;67214;47.454;18.966;2023-06-22T07:03:40;9.90;;;5.17;;
77571;SDS011;67214;47.454;18.966;2023-06-22T07:06:08;33.67;;;11.95;;
77571;SDS011;67214;47.454;18.966;2023-06-22T07:08:35;14.95;;;4.92;;
77571;SDS011;67214;47.454;18.966;2023-06-22T07:11:04;13.28;;;6.60;;
77571;SDS011;67214;47.454;18.966;2023-06-22T07:13:32;11.48;;;5.35;;
77571;SDS011;67214;47.454;18.966;2023-06-22T07:16:00;13.28;;;6.17;;
77571;SDS011;67214;47.454;18.966;2023-06-22T07:18:27;10.03;;;5.00;;
77571;SDS011;67214;47.454;18.966;2023-06-22T07:20:55;11.90;;;5.22;;
77571;SDS011;67214;47.454;18.966;2023-06-22T07:23:22;10.63;;;5.42;;
77571;SDS011;67214;47.454;18.966;2023-06-22T07:25:50;11.83;;;5.50;;
77571;SDS011;67214;47.454;18.966;2023-06-22T07:28:17;13.72;;;5.70;;
77571;SDS011;67214;47.454;18.966;2023-06-22T07:30:45;11.60;;;5.85;;
77571;SDS011;67214;47.454;18.966;2023-06-22T07:33:13;13.08;;;6.22;;
77571;SDS011;67214;47.454;18.966;2023-06-22T07:35:40;12.00;;;6.05;;
77571;SDS011;67214;47.454;18.966;2023-06-22T07:38:08;12.20;;;5.58;;
77571;SDS011;67214;47.454;18.966;2023-06-22T07:40:35;12.60;;;5.45;;
77571;SDS011;67214;47.454;18.966;2023-06-22T07:43:03;9.73;;;5.35;;
77571;SDS011;67214;47.454;18.966;2023-06-22T07:45:31;10.80;;;4.97;;
77571;SDS011;67214;47.454;18.966;2023-06-22T07:48:00;11.08;;;5.15;;
77571;SDS011;67214;47.454;18.966;2023-06-22T07:50:28;9.30;;;5.25;;
77571;SDS011;67214;47.454;18.966;2023-06-22T07:52:56;11.65;;;5.62;;
77571;SDS011;67214;47.454;18.966;2023-06-22T07:55:24;10.60;;;5.45;;
77571;SDS011;67214;47.454;18.966;2023-06-22T07:57:51;10.65;;;5.70;;
77571;SDS011;67214;47.454;18.966;2023-06-22T08:00:19;9.28;;;5.80;;
77571;SDS011;67214;47.454;18.966;2023-06-22T08:02:46;14.85;;;6.45;;
77571;SDS011;67214;47.454;18.966;2023-06-22T08:05:14;12.25;;;6.28;;
77571;SDS011;67214;47.454;18.966;2023-06-22T08:07:43;11.20;;;6.47;;
77571;SDS011;67214;47.454;18.966;2023-06-22T08:10:11;12.93;;;6.53;;
77571;SDS011;67214;47.454;18.966;2023-06-22T08:12:39;13.30;;;6.00;;
77571;SDS011;67214;47.454;18.966;2023-06-22T08:15:07;12.18;;;6.08;;
77571;SDS011;67214;47.454;18.966;2023-06-22T08:17:36;11.38;;;6.45;;
77571;SDS011;67214;47.454;18.966;2023-06-22T08:20:04;8.93;;;7.97;;
77571;SDS011;67214;47.454;18.966;2023-06-22T08:22:37;11.12;;;7.92;;
77571;SDS011;67214;47.454;18.966;2023-06-22T08:25:07;16.75;;;8.58;;
77571;SDS011;67214;47.454;18.966;2023-06-22T08:27:35;11.22;;;8.13;;
77571;SDS011;67214;47.454;18.966;2023-06-22T08:30:02;12.45;;;8.70;;
77571;SDS011;67214;47.454;18.966;2023-06-22T08:32:33;9.15;;;8.33;;
77571;SDS011;67214;47.454;18.966;2023-06-22T08:35:01;9.78;;;8.78;;
77571;SDS011;67214;47.454;18.966;2023-06-22T08:37:28;10.15;;;8.53;;
77571;SDS011;67214;47.454;18.966;2023-06-22T08:40:01;12.13;;;8.98;;
77571;SDS011;67214;47.454;18.966;2023-06-22T08:42:36;9.50;;;8.50;;
77571;SDS011;67214;47.454;18.966;2023-06-22T08:45:04;9.50;;;8.58;;
77571;SDS011;67214;47.454;18.966;2023-06-22T08:47:32;9.98;;;9.08;;
77571;SDS011;67214;47.454;18.966;2023-06-22T08:50:00;10.90;;;8.68;;
77571;SDS011;67214;47.454;18.966;2023-06-22T08:52:31;11.73;;;8.90;;
77571;SDS011;67214;47.454;18.966;2023-06-22T08:54:58;12.73;;;8.60;;
77571;SDS011;67214;47.454;18.966;2023-06-22T08:57:28;13.32;;;9.58;;
77571;SDS011;67214;47.454;18.966;2023-06-22T08:59:58;9.98;;;8.98;;
77571;SDS011;67214;47.454;18.966;2023-06-22T09:02:26;10.60;;;8.88;;
77571;SDS011;67214;47.454;18.966;2023-06-22T09:05:02;11.73;;;9.40;;
77571;SDS011;67214;47.454;18.966;2023-06-22T09:07:24;14.10;;;9.58;;
77571;SDS011;67214;47.454;18.966;2023-06-22T09:09:53;15.10;;;9.30;;
77571;SDS011;67214;47.454;18.966;2023-06-22T09:12:20;9.98;;;8.90;;
77571;SDS011;67214;47.454;18.966;2023-06-22T09:14:50;11.53;;;9.05;;
77571;SDS011;67214;47.454;18.966;2023-06-22T09:17:18;12.10;;;9.85;;
77571;SDS011;67214;47.454;18.966;2023-06-22T09:19:45;13.40;;;9.65;;
77571;SDS011;67214;47.454;18.966;2023-06-22T09:22:13;14.43;;;9.65;;
77571;SDS011;67214;47.454;18.966;2023-06-22T09:24:41;12.88;;;8.88;;
77571;SDS011;67214;47.454;18.966;2023-06-22T09:27:08;11.45;;;9.78;;
77571;SDS011;67214;47.454;18.966;2023-06-22T09:29:36;14.43;;;9.78;;
77571;SDS011;67214;47.454;18.966;2023-06-22T09:32:03;14.53;;;10.60;;
77571;SDS011;67214;47.454;18.966;2023-06-22T09:34:31;12.20;;;10.78;;
77571;SDS011;67214;47.454;18.966;2023-06-22T09:36:59;10.35;;;9.43;;
77571;SDS011;67214;47.454;18.966;2023-06-22T09:39:29;15.10;;;10.05;;
77571;SDS011;67214;47.454;18.966;2023-06-22T09:42:02;13.32;;;10.08;;
77571;SDS011;67214;47.454;18.966;2023-06-22T09:44:26;16.10;;;9.90;;
77571;SDS011;67214;47.454;18.966;2023-06-22T09:46:53;13.68;;;10.00;;
77571;SDS011;67214;47.454;18.966;2023-06-22T09:49:21;11.70;;;10.25;;
77571;SDS011;67214;47.454;18.966;2023-06-22T09:51:48;14.70;;;10.53;;
77571;SDS011;67214;47.454;18.966;2023-06-22T09:54:16;12.28;;;10.25;;
77571;SDS011;67214;47.454;18.966;2023-06-22T09:56:44;11.15;;;9.93;;
77571;SDS011;67214;47.454;18.966;2023-06-22T09:59:11;11.60;;;10.15;;
77571;SDS011;67214;47.454;18.966;2023-06-22T10:01:38;16.48;;;10.35;;
77571;SDS011;67214;47.454;18.966;2023-06-22T10:04:06;11.85;;;10.45;;
77571;SDS011;67214;47.454;18.966;2023-06-22T10:06:33;11.90;;;10.55;;
77571;SDS011;67214;47.454;18.966;2023-06-22T10:09:01;14.28;;;10.13;;
77571;SDS011;67214;47.454;18.966;2023-06-22T10:11:28;17.15;;;10.58;;
77571;SDS011;67214;47.454;18.966;2023-06-22T10:13:57;13.20;;;10.50;;
77571;SDS011;67214;47.454;18.966;2023-06-22T10:16:29;12.58;;;10.40;;
77571;SDS011;67214;47.454;18.966;2023-06-22T10:19:01;13.62;;;10.75;;
77571;SDS011;67214;47.454;18.966;2023-06-22T10:21:28;11.38;;;10.13;;
77571;SDS011;67214;47.454;18.966;2023-06-22T10:23:57;12.60;;;11.35;;
77571;SDS011;67214;47.454;18.966;2023-06-22T10:26:26;13.35;;;9.70;;
77571;SDS011;67214;47.454;18.966;2023-06-22T10:28:54;13.58;;;10.58;;
77571;SDS011;67214;47.454;18.966;2023-06-22T10:31:22;17.65;;;11.03;;
77571;SDS011;67214;47.454;18.966;2023-06-22T10:33:49;12.58;;;10.32;;
77571;SDS011;67214;47.454;18.966;2023-06-22T10:36:16;12.07;;;10.75;;
77571;SDS011;67214;47.454;18.966;2023-06-22T10:38:44;11.78;;;10.25;;
77571;SDS011;67214;47.454;18.966;2023-06-22T10:41:12;15.70;;;10.60;;
77571;SDS011;67214;47.454;18.966;2023-06-22T10:43:40;14.70;;;10.65;;
77571;SDS011;67214;47.454;18.966;2023-06-22T10:46:07;13.80;;;10.63;;
77571;SDS011;67214;47.454;18.966;2023-06-22T10:48:35;11.80;;;10.58;;
77571;SDS011;67214;47.454;18.966;2023-06-22T10:51:03;12.78;;;9.93;;
77571;SDS011;67214;47.454;18.966;2023-06-22T10:53:30;13.93;;;10.82;;
77571;SDS011;67214;47.454;18.966;2023-06-22T10:55:58;13.05;;;10.82;;
77571;SDS011;67214;47.454;18.966;2023-06-22T10:58:26;13.75;;;10.82;;
77571;SDS011;67214;47.454;18.966;2023-06-22T11:00:53;11.95;;;10.75;;
77571;SDS011;67214;47.454;18.966;2023-06-22T11:03:20;13.90;;;10.85;;
77571;SDS011;67214;47.454;18.966;2023-06-22T11:05:48;12.43;;;9.85;;
77571;SDS011;67214;47.454;18.966;2023-06-22T11:08:15;15.63;;;10.93;;
77571;SDS011;67214;47.454;18.966;2023-06-22T11:10:43;11.63;;;10.18;;
77571;SDS011;67214;47.454;18.966;2023-06-22T11:13:11;16.00;;;11.20;;
77571;SDS011;67214;47.454;18.966;2023-06-22T11:15:38;11.73;;;10.50;;
77571;SDS011;67214;47.454;18.966;2023-06-22T11:18:06;12.75;;;9.98;;
77571;SDS011;67214;47.454;18.966;2023-06-22T11:20:33;13.48;;;10.40;;
77571;SDS011;67214;47.454;18.966;2023-06-22T11:23:02;12.50;;;9.85;;
77571;SDS011;67214;47.454;18.966;2023-06-22T11:25:31;10.55;;;9.45;;
77571;SDS011;67214;47.454;18.966;2023-06-22T11:28:03;12.88;;;10.25;;
77571;SDS011;67214;47.454;18.966;2023-06-22T11:30:31;12.60;;;9.88;;
77571;SDS011;67214;47.454;18.966;2023-06-22T11:32:59;12.98;;;9.88;;
77571;SDS011;67214;47.454;18.966;2023-06-22T11:35:27;11.18;;;8.98;;
77571;SDS011;67214;47.454;18.966;2023-06-22T11:37:54;12.73;;;10.13;;
77571;SDS011;67214;47.454;18.966;2023-06-22T11:40:22;14.47;;;10.65;;
77571;SDS011;67214;47.454;18.966;2023-06-22T11:42:49;12.18;;;9.45;;
77571;SDS011;67214;47.454;18.966;2023-06-22T11:45:17;11.90;;;9.55;;
77571;SDS011;67214;47.454;18.966;2023-06-22T11:47:46;17.45;;;10.53;;
77571;SDS011;67214;47.454;18.966;2023-06-22T11:50:13;14.20;;;9.58;;
77571;SDS011;67214;47.454;18.966;2023-06-22T11:52:41;16.77;;;10.15;;
77571;SDS011;67214;47.454;18.966;2023-06-22T11:55:08;14.50;;;10.40;;
77571;SDS011;67214;47.454;18.966;2023-06-22T11:57:36;13.98;;;9.83;;
77571;SDS011;67214;47.454;18.966;2023-06-22T12:00:05;12.70;;;9.90;;
77571;SDS011;67214;47.454;18.966;2023-06-22T12:02:43;13.38;;;9.73;;
77571;SDS011;67214;47.454;18.966;2023-06-22T12:05:11;11.63;;;9.00;;
77571;SDS011;67214;47.454;18.966;2023-06-22T12:07:38;11.97;;;9.85;;
77571;SDS011;67214;47.454;18.966;2023-06-22T12:10:06;12.45;;;8.90;;
77571;SDS011;67214;47.454;18.966;2023-06-22T12:12:34;14.60;;;10.00;;
77571;SDS011;67214;47.454;18.966;2023-06-22T12:15:01;13.60;;;9.80;;
77571;SDS011;67214;47.454;18.966;2023-06-22T12:17:32;15.53;;;9.43;;
77571;SDS011;67214;47.454;18.966;2023-06-22T12:20:01;12.18;;;9.93;;
77571;SDS011;67214;47.454;18.966;2023-06-22T12:22:34;11.90;;;9.93;;
77571;SDS011;67214;47.454;18.966;2023-06-22T12:25:03;14.47;;;10.43;;
77571;SDS011;67214;47.454;18.966;2023-06-22T12:27:31;12.23;;;9.78;;
77571;SDS011;67214;47.454;18.966;2023-06-22T12:29:59;11.05;;;9.65;;
77571;SDS011;67214;47.454;18.966;2023-06-22T12:32:26;17.98;;;10.05;;
77571;SDS011;67214;47.454;18.966;2023-06-22T12:34:54;14.07;;;9.65;;
77571;SDS011;67214;47.454;18.966;2023-06-22T12:37:22;10.88;;;9.78;;
77571;SDS011;67214;47.454;18.966;2023-06-22T12:39:50;10.45;;;8.90;;
77571;SDS011;67214;47.454;18.966;2023-06-22T12:42:17;11.30;;;9.50;;
77571;SDS011;67214;47.454;18.966;2023-06-22T12:44:46;10.43;;;8.90;;
77571;SDS011;67214;47.454;18.966;2023-06-22T12:47:13;11.25;;;9.33;;
77571;SDS011;67214;47.454;18.966;2023-06-22T12:49:41;12.13;;;9.23;;
77571;SDS011;67214;47.454;18.966;2023-06-22T12:52:09;13.22;;;9.40;;
77571;SDS011;67214;47.454;18.966;2023-06-22T12:54:36;12.60;;;10.08;;
77571;SDS011;67214;47.454;18.966;2023-06-22T12:57:04;12.93;;;9.83;;
77571;SDS011;67214;47.454;18.966;2023-06-22T12:59:32;11.57;;;9.05;;
77571;SDS011;67214;47.454;18.966;2023-06-22T13:01:59;12.37;;;9.35;;
77571;SDS011;67214;47.454;18.966;2023-06-22T13:04:27;15.85;;;10.68;;
77571;SDS011;67214;47.454;18.966;2023-06-22T13:06:54;13.43;;;9.68;;
77571;SDS011;67214;47.454;18.966;2023-06-22T13:09:21;10.72;;;9.63;;
77571;SDS011;67214;47.454;18.966;2023-06-22T13:11:49;13.28;;;9.55;;
77571;SDS011;67214;47.454;18.966;2023-06-22T13:14:19;14.30;;;9.18;;
77571;SDS011;67214;47.454;18.966;2023-06-22T13:16:47;11.12;;;9.48;;
77571;SDS011;67214;47.454;18.966;2023-06-22T13:19:14;12.45;;;9.68;;
77571;SDS011;67214;47.454;18.966;2023-06-22T13:21:42;12.82;;;8.95;;
77571;SDS011;67214;47.454;18.966;2023-06-22T13:24:09;15.98;;;10.30;;
77571;SDS011;67214;47.454;18.966;2023-06-22T13:26:36;14.05;;;8.98;;
77571;SDS011;67214;47.454;18.966;2023-06-22T13:29:04;12.70;;;10.10;;
77571;SDS011;67214;47.454;18.966;2023-06-22T13:31:32;12.63;;;9.53;;
77571;SDS011;67214;47.454;18.966;2023-06-22T13:33:59;13.58;;;9.00;;
77571;SDS011;67214;47.454;18.966;2023-06-22T13:36:27;13.48;;;10.60;;
77571;SDS011;67214;47.454;18.966;2023-06-22T13:38:56;11.95;;;8.45;;
77571;SDS011;67214;47.454;18.966;2023-06-22T13:41:23;10.72;;;8.88;;
77571;SDS011;67214;47.454;18.966;2023-06-22T13:43:51;11.95;;;9.38;;
77571;SDS011;67214;47.454;18.966;2023-06-22T13:46:37;12.85;;;8.55;;
77571;SDS011;67214;47.454;18.966;2023-06-22T13:49:04;17.82;;;9.80;;
77571;SDS011;67214;47.454;18.966;2023-06-22T13:51:32;10.65;;;8.70;;
77571;SDS011;67214;47.454;18.966;2023-06-22T13:53:59;11.57;;;9.70;;
77571;SDS011;67214;47.454;18.966;2023-06-22T13:56:26;10.00;;;9.00;;
77571;SDS011;67214;47.454;18.966;2023-06-22T13:58:54;12.37;;;9.40;;
77571;SDS011;67214;47.454;18.966;2023-06-22T14:01:21;14.15;;;9.63;;
77571;SDS011;67214;47.454;18.966;2023-06-22T14:03:49;12.73;;;9.08;;
77571;SDS011;67214;47.454;18.966;2023-06-22T14:06:16;12.78;;;9.38;;
77571;SDS011;67214;47.454;18.966;2023-06-22T14:08:43;15.72;;;9.23;;
77571;SDS011;67214;47.454;18.966;2023-06-22T14:11:11;13.90;;;9.53;;
77571;SDS011;67214;47.454;18.966;2023-06-22T14:13:39;13.38;;;8.95;;
77571;SDS011;67214;47.454;18.966;2023-06-22T14:16:08;9.45;;;8.43;;
77571;SDS011;67214;47.454;18.966;2023-06-22T14:18:35;13.50;;;9.03;;
77571;SDS011;67214;47.454;18.966;2023-06-22T14:21:17;10.15;;;9.10;;
77571;SDS011;67214;47.454;18.966;2023-06-22T14:23:32;12.45;;;9.00;;
77571;SDS011;67214;47.454;18.966;2023-06-22T14:26:00;11.15;;;9.35;;
77571;SDS011;67214;47.454;18.966;2023-06-22T14:28:27;16.17;;;9.38;;
77571;SDS011;67214;47.454;18.966;2023-06-22T14:30:54;14.47;;;9.63;;
77571;SDS011;67214;47.454;18.966;2023-06-22T14:33:22;10.90;;;8.45;;